createdAt,value
2022-09-29T00:01:57.720Z,23.70
2022-09-29T00:04:28.314Z,23.70
2022-09-29T00:06:57.416Z,23.70
2022-09-29T00:09:29.452Z,23.70
2022-09-29T00:11:58.689Z,23.60
2022-09-29T00:14:27.914Z,23.70
2022-09-29T00:16:57.248Z,23.70
2022-09-29T00:19:27.010Z,23.70
2022-09-29T00:21:56.939Z,23.70
2022-09-29T00:24:26.177Z,23.70
2022-09-29T00:26:55.408Z,23.80
2022-09-29T00:29:24.831Z,23.80
2022-09-29T00:31:54.235Z,23.80
2022-09-29T00:34:23.519Z,23.80
2022-09-29T00:36:52.657Z,23.80
2022-09-29T00:39:21.958Z,23.90
2022-09-29T00:41:51.485Z,23.90
2022-09-29T00:44:22.419Z,23.90
2022-09-29T00:46:59.273Z,23.90
2022-09-29T00:49:33.857Z,24.00
2022-09-29T00:52:09.980Z,24.00
2022-09-29T00:54:52.081Z,24.00
2022-09-29T00:57:25.296Z,24.00
2022-09-29T01:00:03.466Z,24.10
2022-09-29T01:02:35.736Z,24.10
2022-09-29T01:05:11.716Z,24.10
2022-09-29T01:07:46.009Z,24.20
2022-09-29T01:10:18.772Z,24.20
2022-09-29T01:12:50.611Z,24.20
2022-09-29T01:15:22.265Z,24.20
2022-09-29T01:17:51.592Z,24.20
2022-09-29T01:20:24.374Z,24.20
2022-09-29T01:23:14.711Z,24.30
2022-09-29T01:26:10.460Z,24.30
2022-09-29T01:29:18.878Z,24.40
2022-09-29T01:32:11.756Z,24.40
2022-09-29T01:34:46.791Z,24.50
2022-09-29T01:37:23.466Z,24.60
2022-09-29T01:40:24.306Z,24.60
2022-09-29T01:42:57.390Z,24.70
2022-09-29T01:45:37.367Z,24.70
2022-09-29T01:48:15.069Z,24.80
2022-09-29T01:50:49.766Z,24.80
2022-09-29T01:53:29.859Z,24.90
2022-09-29T01:56:06.728Z,24.90
2022-09-29T01:58:44.453Z,24.90
2022-09-29T02:01:16.788Z,25.00
2022-09-29T02:03:52.069Z,25.00
2022-09-29T02:06:28.417Z,25.00
2022-09-29T02:09:00.640Z,25.10
2022-09-29T02:11:31.143Z,25.00
2022-09-29T02:14:12.536Z,25.10
2022-09-29T02:16:50.236Z,25.10
2022-09-29T02:19:24.665Z,25.10
2022-09-29T02:21:55.920Z,25.20
2022-09-29T02:24:26.596Z,25.30
2022-09-29T02:26:57.656Z,25.30
2022-09-29T02:29:26.984Z,25.40
2022-09-29T02:32:00.786Z,25.50
2022-09-29T02:34:33.151Z,25.50
2022-09-29T02:37:22.425Z,25.50
2022-09-29T02:40:04.254Z,25.50
2022-09-29T02:42:51.945Z,25.50
2022-09-29T02:45:44.719Z,25.50
2022-09-29T02:48:29.808Z,25.50
2022-09-29T02:51:26.509Z,25.50
2022-09-29T02:54:15.838Z,25.40
2022-09-29T02:57:13.851Z,25.50
2022-09-29T02:59:57.461Z,25.50
2022-09-29T03:02:28.577Z,25.60
2022-09-29T03:04:57.994Z,25.60
2022-09-29T03:07:29.678Z,25.60
2022-09-29T03:10:00.081Z,25.70
2022-09-29T03:12:29.427Z,25.70
2022-09-29T03:14:59.078Z,25.70
2022-09-29T03:17:28.323Z,25.70
2022-09-29T03:19:57.547Z,25.70
2022-09-29T03:22:27.423Z,25.70
2022-09-29T03:24:56.714Z,25.80
2022-09-29T03:27:26.331Z,25.90
2022-09-29T03:29:55.537Z,26.10
2022-09-29T03:32:24.765Z,26.20
2022-09-29T03:34:54.090Z,26.30
2022-09-29T03:37:23.298Z,26.40
2022-09-29T03:39:52.531Z,26.50
2022-09-29T03:42:24.258Z,26.50
2022-09-29T03:44:53.432Z,26.60
2022-09-29T03:47:22.755Z,26.60
2022-09-29T03:49:52.525Z,26.70
2022-09-29T03:52:21.818Z,26.80
2022-09-29T03:54:51.028Z,26.80
2022-09-29T03:57:20.283Z,26.90
2022-09-29T03:59:49.543Z,26.90
2022-09-29T04:02:21.214Z,27.00
2022-09-29T04:04:50.608Z,27.00
2022-09-29T04:07:19.838Z,27.00
2022-09-29T04:09:49.113Z,27.00
2022-09-29T04:12:18.453Z,27.00
2022-09-29T04:14:47.705Z,27.00
2022-09-29T04:17:17.081Z,26.90
2022-09-29T04:19:46.405Z,26.90
2022-09-29T04:22:19.802Z,26.80
2022-09-29T04:24:49.963Z,26.80
2022-09-29T04:27:19.744Z,26.70
2022-09-29T04:29:49.202Z,26.70
2022-09-29T04:32:18.511Z,26.60
2022-09-29T04:34:47.954Z,26.50
2022-09-29T04:37:17.204Z,26.30
2022-09-29T04:39:47.515Z,26.20
2022-09-29T04:42:16.794Z,26.10
2022-09-29T04:44:47.237Z,26.10
2022-09-29T04:47:17.058Z,26.10
2022-09-29T04:49:46.228Z,26.10
2022-09-29T04:52:16.130Z,26.10
2022-09-29T04:54:45.480Z,26.10
2022-09-29T04:57:14.679Z,26.20
2022-09-29T04:59:43.876Z,26.20
2022-09-29T05:02:13.178Z,26.20
2022-09-29T05:04:43.579Z,26.20
2022-09-29T05:07:13.098Z,26.20
2022-09-29T05:09:42.548Z,26.20
2022-09-29T05:12:11.788Z,26.10
2022-09-29T05:14:41.175Z,26.10
2022-09-29T05:17:10.419Z,26.00
2022-09-29T05:19:39.611Z,26.00
2022-09-29T05:22:08.918Z,26.00
2022-09-29T05:24:38.137Z,25.90
2022-09-29T05:27:07.392Z,25.90
2022-09-29T05:29:37.071Z,25.90
2022-09-29T05:32:06.698Z,25.90
2022-09-29T05:34:36.055Z,26.00
2022-09-29T05:37:06.225Z,26.00
2022-09-29T05:39:36.155Z,25.90
2022-09-29T05:42:11.765Z,25.80
2022-09-29T05:44:41.375Z,25.70
2022-09-29T05:47:10.609Z,25.60
2022-09-29T05:49:40.742Z,25.50
2022-09-29T05:52:10.330Z,25.50
2022-09-29T05:54:40.738Z,25.40
2022-09-29T05:57:10.015Z,25.40
2022-09-29T05:59:39.351Z,25.40
2022-09-29T06:02:08.640Z,25.40
2022-09-29T06:04:40.795Z,25.40
2022-09-29T06:07:10.317Z,25.40
2022-09-29T06:09:39.608Z,25.40
2022-09-29T06:12:08.923Z,25.30
2022-09-29T06:14:38.109Z,25.30
2022-09-29T06:17:07.336Z,25.30
2022-09-29T06:19:36.494Z,25.30
2022-09-29T06:22:05.845Z,25.30
2022-09-29T06:24:35.193Z,25.30
2022-09-29T06:27:04.367Z,25.40
2022-09-29T06:29:33.642Z,25.40
2022-09-29T06:32:03.688Z,25.50
2022-09-29T06:34:33.052Z,25.50
2022-09-29T06:37:21.977Z,25.60
2022-09-29T06:39:51.274Z,25.60
2022-09-29T06:42:20.474Z,25.70
2022-09-29T06:44:49.694Z,25.80
2022-09-29T06:47:20.176Z,25.80
2022-09-29T06:50:02.355Z,25.80
2022-09-29T06:52:39.496Z,25.90
2022-09-29T06:55:09.278Z,25.90
2022-09-29T06:57:39.703Z,26.00
2022-09-29T07:00:09.852Z,26.00
2022-09-29T07:02:39.142Z,26.10
2022-09-29T07:05:08.845Z,26.20
2022-09-29T07:07:38.020Z,26.20
2022-09-29T07:10:11.053Z,26.20
2022-09-29T07:12:40.220Z,26.10
2022-09-29T07:15:09.918Z,26.00
2022-09-29T07:17:39.289Z,25.90
2022-09-29T07:20:09.154Z,25.90
2022-09-29T07:22:38.404Z,25.80
2022-09-29T07:25:08.275Z,25.80
2022-09-29T07:27:37.483Z,25.90
2022-09-29T07:30:07.254Z,25.90
2022-09-29T07:32:36.564Z,25.90
2022-09-29T07:35:07.479Z,26.00
2022-09-29T07:37:36.735Z,26.10
2022-09-29T07:40:06.396Z,26.10
2022-09-29T07:42:35.527Z,26.10
2022-09-29T07:45:04.867Z,26.10
2022-09-29T07:47:34.224Z,26.20
2022-09-29T07:50:03.439Z,26.20
2022-09-29T07:52:32.761Z,26.30
2022-09-29T07:55:02.059Z,26.30
2022-09-29T07:57:31.409Z,26.30
2022-09-29T08:00:00.994Z,26.30
2022-09-29T08:02:30.386Z,26.30
2022-09-29T08:05:03.235Z,26.30
2022-09-29T08:07:34.870Z,26.40
2022-09-29T08:10:14.884Z,26.40
2022-09-29T08:12:46.584Z,26.40
2022-09-29T08:15:15.950Z,26.40
2022-09-29T08:17:45.121Z,26.50
2022-09-29T08:20:14.690Z,26.50
2022-09-29T08:22:43.830Z,26.50
2022-09-29T08:25:13.006Z,26.50
2022-09-29T08:27:53.990Z,26.50
2022-09-29T08:30:24.831Z,26.50
2022-09-29T08:32:56.441Z,26.60
2022-09-29T08:35:26.826Z,26.60
2022-09-29T08:38:00.367Z,26.60
2022-09-29T08:40:32.394Z,26.60
2022-09-29T08:43:03.506Z,26.60
2022-09-29T08:45:37.553Z,26.50
2022-09-29T08:48:22.801Z,26.30
2022-09-29T08:50:59.736Z,26.20
2022-09-29T08:53:32.731Z,26.10
2022-09-29T08:56:08.184Z,25.90
2022-09-29T08:58:39.824Z,25.80
2022-09-29T09:01:31.586Z,25.80
2022-09-29T09:04:39.950Z,25.80
2022-09-29T09:07:11.084Z,25.80
2022-09-29T09:10:00.904Z,25.70
2022-09-29T09:12:31.279Z,25.70
2022-09-29T09:15:12.545Z,25.60
2022-09-29T09:18:01.987Z,25.60
2022-09-29T09:20:46.576Z,25.60
2022-09-29T09:23:22.421Z,25.60
2022-09-29T09:26:03.814Z,25.60
2022-09-29T09:28:37.765Z,25.50
2022-09-29T09:31:20.180Z,25.50
2022-09-29T09:34:05.535Z,25.60
2022-09-29T09:36:42.324Z,25.50
2022-09-29T09:39:17.992Z,25.50
2022-09-29T09:41:52.440Z,25.40
2022-09-29T09:44:27.136Z,25.40
2022-09-29T09:47:16.371Z,25.40
2022-09-29T09:49:53.845Z,25.40
2022-09-29T09:52:28.637Z,25.30
2022-09-29T09:55:07.590Z,25.30
2022-09-29T09:58:12.419Z,25.20
2022-09-29T10:00:48.999Z,25.20
2022-09-29T10:03:20.838Z,25.10
2022-09-29T10:05:51.379Z,25.10
2022-09-29T10:08:41.421Z,25.10
2022-09-29T10:11:25.136Z,25.10
2022-09-29T10:14:08.164Z,25.00
2022-09-29T10:16:45.452Z,25.00
2022-09-29T10:19:46.886Z,25.00
2022-09-29T10:22:17.000Z,25.00
2022-09-29T10:24:46.201Z,25.00
2022-09-29T10:27:22.419Z,25.00
2022-09-29T10:29:56.260Z,25.00
2022-09-29T10:32:40.309Z,25.00
2022-09-29T10:35:19.743Z,25.00
2022-09-29T10:37:55.770Z,25.00
2022-09-29T10:40:25.546Z,25.00
2022-09-29T10:42:55.477Z,24.90
2022-09-29T10:45:32.168Z,24.90
2022-09-29T10:48:02.590Z,24.90
2022-09-29T10:50:37.451Z,24.80
2022-09-29T10:53:20.767Z,24.90
2022-09-29T10:55:54.576Z,24.80
2022-09-29T10:58:45.105Z,24.80
2022-09-29T11:01:23.657Z,24.80
2022-09-29T11:04:09.088Z,24.80
2022-09-29T11:09:30.493Z,24.80
2022-09-29T11:12:05.003Z,24.80
2022-09-29T11:14:41.247Z,24.80
2022-09-29T11:17:30.644Z,24.80
2022-09-29T11:20:05.031Z,24.70
2022-09-29T11:22:52.198Z,24.70
2022-09-29T11:25:49.445Z,24.70
2022-09-29T11:28:38.498Z,24.70
2022-09-29T11:31:45.451Z,24.70
2022-09-29T11:34:53.496Z,24.70
2022-09-29T11:37:42.636Z,24.70
2022-09-29T11:40:15.361Z,24.70
2022-09-29T11:42:48.914Z,24.70
2022-09-29T11:45:23.139Z,24.70
2022-09-29T11:47:58.172Z,24.70
2022-09-29T11:50:47.737Z,24.70
2022-09-29T11:53:39.778Z,24.70
2022-09-29T11:56:25.591Z,24.70
2022-09-29T11:58:56.688Z,24.70
2022-09-29T12:01:53.953Z,24.70
2022-09-29T12:04:43.254Z,24.60
2022-09-29T12:07:28.426Z,24.60
2022-09-29T12:10:04.331Z,24.60
2022-09-29T12:12:42.994Z,24.60
2022-09-29T12:15:22.799Z,24.60
2022-09-29T12:18:01.306Z,24.60
2022-09-29T12:20:37.225Z,24.60
2022-09-29T12:23:14.469Z,24.60
2022-09-29T12:26:10.705Z,24.60
2022-09-29T12:28:53.011Z,24.60
2022-09-29T12:31:29.425Z,24.60
2022-09-29T12:34:04.948Z,24.60
2022-09-29T12:36:55.666Z,24.60
2022-09-29T12:39:52.285Z,24.70
2022-09-29T12:42:45.621Z,24.70
2022-09-29T12:45:50.405Z,24.60
2022-09-29T12:48:27.546Z,24.60
2022-09-29T12:51:13.174Z,24.60
2022-09-29T12:54:10.061Z,24.60
2022-09-29T12:56:44.860Z,24.60
2022-09-29T12:59:42.494Z,24.60
2022-09-29T13:02:51.235Z,24.60
2022-09-29T13:05:46.562Z,24.60
2022-09-29T13:08:35.871Z,24.60
2022-09-29T13:11:09.425Z,24.60
2022-09-29T13:13:53.321Z,24.60
2022-09-29T13:16:29.778Z,24.60
2022-09-29T13:19:07.028Z,24.60
2022-09-29T13:21:49.934Z,24.60
2022-09-29T13:24:33.566Z,24.60
2022-09-29T13:27:34.541Z,24.60
2022-09-29T13:30:18.610Z,24.60
2022-09-29T13:33:00.165Z,24.60
2022-09-29T13:35:29.926Z,24.60
2022-09-29T13:38:07.293Z,24.60
2022-09-29T13:40:37.083Z,24.60
2022-09-29T13:43:07.036Z,24.60
2022-09-29T13:45:39.203Z,24.60
2022-09-29T13:48:37.034Z,24.60
2022-09-29T13:51:26.938Z,24.60
2022-09-29T13:54:22.151Z,24.60
2022-09-29T13:56:54.193Z,24.70
2022-09-29T13:59:26.359Z,24.70
2022-09-29T14:01:55.837Z,24.70
2022-09-29T14:04:53.252Z,24.70
2022-09-29T14:07:46.052Z,24.70
2022-09-29T14:10:31.679Z,24.60
2022-09-29T14:13:06.122Z,24.60
2022-09-29T14:15:41.448Z,24.60
2022-09-29T14:18:24.923Z,24.50
2022-09-29T14:21:05.244Z,24.50
2022-09-29T14:23:53.088Z,24.50
2022-09-29T14:26:43.824Z,24.50
2022-09-29T14:29:35.619Z,24.50
2022-09-29T14:32:07.214Z,24.50
2022-09-29T14:34:37.147Z,24.50
2022-09-29T14:37:08.910Z,24.50
2022-09-29T14:39:41.907Z,24.50
2022-09-29T14:42:18.864Z,24.50
2022-09-29T14:45:07.687Z,24.50
2022-09-29T14:48:22.047Z,24.50
2022-09-29T14:51:14.954Z,24.50
2022-09-29T14:54:07.015Z,24.50
2022-09-29T14:56:40.725Z,24.50
2022-09-29T14:59:21.175Z,24.50
2022-09-29T15:02:10.498Z,24.50
2022-09-29T15:04:41.975Z,24.50
2022-09-29T15:07:19.155Z,24.50
2022-09-29T15:09:51.044Z,24.50
2022-09-29T15:12:36.714Z,24.50
2022-09-29T15:15:06.271Z,24.50
2022-09-29T15:17:58.535Z,24.50
2022-09-29T15:20:52.572Z,24.50
2022-09-29T15:23:32.761Z,24.50
2022-09-29T15:26:02.519Z,24.50
2022-09-29T15:28:34.590Z,24.50
2022-09-29T15:31:08.738Z,24.50
2022-09-29T15:33:40.317Z,24.50
2022-09-29T15:36:18.751Z,24.60
2022-09-29T15:38:48.364Z,24.50
2022-09-29T15:41:19.958Z,24.50
2022-09-29T15:43:55.724Z,24.50
2022-09-29T15:46:27.327Z,24.50
2022-09-29T15:49:17.398Z,24.50
2022-09-29T15:52:08.209Z,24.50
2022-09-29T15:54:41.452Z,24.50
2022-09-29T15:57:45.786Z,24.50
2022-09-29T16:00:44.679Z,24.50
2022-09-29T16:03:18.691Z,24.50
2022-09-29T16:06:08.360Z,24.50
2022-09-29T16:08:44.769Z,24.50
2022-09-29T16:11:24.361Z,24.50
2022-09-29T16:14:00.313Z,24.50
2022-09-29T16:16:36.499Z,24.50
2022-09-29T16:19:17.386Z,24.50
2022-09-29T16:21:46.642Z,24.50
2022-09-29T16:24:20.260Z,24.50
2022-09-29T16:26:56.404Z,24.50
2022-09-29T16:29:29.315Z,24.50
2022-09-29T16:31:59.984Z,24.50
2022-09-29T16:34:32.498Z,24.50
2022-09-29T16:37:05.746Z,24.50
2022-09-29T16:39:46.225Z,24.50
2022-09-29T16:42:27.125Z,24.50
2022-09-29T16:44:57.980Z,24.50
2022-09-29T16:47:31.117Z,24.40
2022-09-29T16:50:12.479Z,24.40
2022-09-29T16:52:45.347Z,24.40
2022-09-29T16:55:30.888Z,24.50
2022-09-29T16:58:03.908Z,24.50
2022-09-29T17:01:16.601Z,24.50
2022-09-29T17:03:46.906Z,24.50
2022-09-29T17:06:16.147Z,24.50
2022-09-29T17:08:47.682Z,24.50
2022-09-29T17:11:19.425Z,24.50
2022-09-29T17:13:48.881Z,24.50
2022-09-29T17:16:22.662Z,24.50
2022-09-29T17:18:54.437Z,24.50
2022-09-29T17:21:23.603Z,24.50
2022-09-29T17:23:52.734Z,24.50
2022-09-29T17:26:48.286Z,24.50
2022-09-29T17:29:17.422Z,24.50
2022-09-29T17:31:46.681Z,24.50
2022-09-29T17:34:15.862Z,24.50
2022-09-29T17:36:46.508Z,24.50
2022-09-29T17:39:15.702Z,24.50
2022-09-29T17:41:46.051Z,24.50
2022-09-29T17:44:15.826Z,24.50
2022-09-29T17:46:45.960Z,24.50
2022-09-29T17:49:20.526Z,24.50
2022-09-29T17:51:49.697Z,24.50
2022-09-29T17:54:19.236Z,24.50
2022-09-29T17:56:48.465Z,24.50
2022-09-29T17:59:18.465Z,24.50
2022-09-29T18:01:47.843Z,24.50
2022-09-29T18:04:17.059Z,24.40
2022-09-29T18:06:46.261Z,24.40
2022-09-29T18:09:18.662Z,24.40
2022-09-29T18:11:49.437Z,24.40
2022-09-29T18:14:19.843Z,24.40
2022-09-29T18:16:49.016Z,24.40
2022-09-29T18:19:19.541Z,24.40
2022-09-29T18:21:48.669Z,24.40
2022-09-29T18:24:17.905Z,24.50
2022-09-29T18:26:47.854Z,24.50
2022-09-29T18:29:21.087Z,24.50
2022-09-29T18:31:51.503Z,24.40
2022-09-29T18:34:23.491Z,24.40
2022-09-29T18:36:52.705Z,24.40
2022-09-29T18:39:22.218Z,24.40
2022-09-29T18:41:51.568Z,24.40
2022-09-29T18:44:24.701Z,24.40
2022-09-29T18:46:53.870Z,24.40
2022-09-29T18:49:23.071Z,24.40
2022-09-29T18:51:54.148Z,24.40
2022-09-29T18:54:23.401Z,24.40
2022-09-29T18:56:54.660Z,24.40
2022-09-29T18:59:24.141Z,24.40
2022-09-29T19:01:53.383Z,24.40
2022-09-29T19:04:22.717Z,24.40
2022-09-29T19:06:52.464Z,24.40
2022-09-29T19:09:21.949Z,24.30
2022-09-29T19:11:51.253Z,24.30
2022-09-29T19:14:20.483Z,24.30
2022-09-29T19:16:49.891Z,24.30
2022-09-29T19:19:19.292Z,24.30
2022-09-29T19:21:48.462Z,24.30
2022-09-29T19:24:19.308Z,24.20
2022-09-29T19:26:48.519Z,24.20
2022-09-29T19:29:17.764Z,24.20
2022-09-29T19:31:47.107Z,24.20
2022-09-29T19:34:16.325Z,24.20
2022-09-29T19:36:45.599Z,24.20
2022-09-29T19:39:15.881Z,24.20
2022-09-29T19:41:45.046Z,24.30
2022-09-29T19:44:14.186Z,24.20
2022-09-29T19:46:43.578Z,24.30
2022-09-29T19:49:12.832Z,24.30
2022-09-29T19:52:01.683Z,24.30
2022-09-29T19:54:36.864Z,24.30
2022-09-29T19:57:09.363Z,24.30
2022-09-29T19:59:40.466Z,24.30
2022-09-29T20:02:15.256Z,24.30
2022-09-29T20:04:45.862Z,24.30
2022-09-29T20:07:15.165Z,24.20
2022-09-29T20:09:46.991Z,24.30
2022-09-29T20:12:19.504Z,24.20
2022-09-29T20:14:48.929Z,24.30
2022-09-29T20:17:18.292Z,24.20
2022-09-29T20:19:49.169Z,24.20
2022-09-29T20:22:18.241Z,24.20
2022-09-29T20:24:47.804Z,24.20
2022-09-29T20:27:17.026Z,24.20
2022-09-29T20:29:46.403Z,24.20
2022-09-29T20:32:16.366Z,24.20
2022-09-29T20:34:45.587Z,24.20
2022-09-29T20:37:16.017Z,24.20
2022-09-29T20:39:45.420Z,24.20
2022-09-29T20:42:14.781Z,24.20
2022-09-29T20:44:44.744Z,24.20
2022-09-29T20:47:14.411Z,24.20
2022-09-29T20:49:45.573Z,24.20
2022-09-29T20:52:14.794Z,24.20
2022-09-29T20:54:44.302Z,24.20
2022-09-29T20:57:13.556Z,24.20
2022-09-29T20:59:42.757Z,24.20
2022-09-29T21:02:15.363Z,24.20
2022-09-29T21:04:44.638Z,24.20
2022-09-29T21:07:33.443Z,24.20
2022-09-29T21:10:04.444Z,24.20
2022-09-29T21:12:34.082Z,24.20
2022-09-29T21:15:04.249Z,24.20
2022-09-29T21:17:33.465Z,24.20
2022-09-29T21:20:02.670Z,24.20
2022-09-29T21:22:31.798Z,24.20
2022-09-29T21:25:00.904Z,24.20
2022-09-29T21:27:30.493Z,24.20
2022-09-29T21:30:00.056Z,24.20
2022-09-29T21:32:30.380Z,24.20
2022-09-29T21:34:59.581Z,24.20
2022-09-29T21:37:28.733Z,24.20
2022-09-29T21:39:57.860Z,24.20
2022-09-29T21:42:27.042Z,24.20
2022-09-29T21:44:58.032Z,24.20
2022-09-29T21:47:47.019Z,24.20
2022-09-29T21:50:17.223Z,24.20
2022-09-29T21:52:46.338Z,24.20
2022-09-29T21:55:15.537Z,24.20
2022-09-29T21:57:44.663Z,24.20
2022-09-29T22:00:18.650Z,24.20
2022-09-29T22:02:47.915Z,24.20
2022-09-29T22:05:17.465Z,24.20
2022-09-29T22:07:48.830Z,24.20
2022-09-29T22:10:18.173Z,24.20
2022-09-29T22:12:47.363Z,24.20
2022-09-29T22:15:16.658Z,24.20
2022-09-29T22:17:46.113Z,24.20
2022-09-29T22:20:15.375Z,24.20
2022-09-29T22:22:44.567Z,24.20
2022-09-29T22:25:13.820Z,24.20
2022-09-29T22:27:43.127Z,24.20
2022-09-29T22:30:12.830Z,24.20
2022-09-29T22:32:42.000Z,24.20
2022-09-29T22:35:11.196Z,24.20
2022-09-29T22:37:40.399Z,24.20
2022-09-29T22:40:10.936Z,24.20
2022-09-29T22:42:40.074Z,24.20
2022-09-29T22:45:09.781Z,24.20
2022-09-29T22:47:39.234Z,24.20
2022-09-29T22:50:09.035Z,24.20
2022-09-29T22:52:38.227Z,24.20
2022-09-29T22:55:08.088Z,24.20
2022-09-29T22:57:37.293Z,24.20
2022-09-29T23:00:10.297Z,24.20
2022-09-29T23:02:41.384Z,24.20
2022-09-29T23:05:11.007Z,24.20
2022-09-29T23:07:40.380Z,24.20
2022-09-29T23:10:11.382Z,24.20
2022-09-29T23:12:44.036Z,24.20
2022-09-29T23:15:14.003Z,24.20
2022-09-29T23:17:43.251Z,24.20
2022-09-29T23:20:12.546Z,24.20
2022-09-29T23:22:41.928Z,24.20
2022-09-29T23:25:11.232Z,24.20
2022-09-29T23:27:40.440Z,24.20
2022-09-29T23:30:10.171Z,24.30
2022-09-29T23:32:39.380Z,24.20
2022-09-29T23:35:08.807Z,24.20
2022-09-29T23:37:57.626Z,24.20
2022-09-29T23:40:26.985Z,24.20
2022-09-29T23:42:56.600Z,24.20
2022-09-29T23:45:25.943Z,24.20
2022-09-29T23:47:56.158Z,24.20
2022-09-29T23:50:25.377Z,24.30
2022-09-29T23:52:54.797Z,24.30
2022-09-29T23:55:23.975Z,24.30
2022-09-29T23:57:53.520Z,24.20
